RYR22KC EGCC-LFOB
Flight info
| Callsign | RYR22KC |
|---|---|
| Flight time | N/A |
| Altitude | 35000 |
| Route | LISTO P18 TELBA L151 MID Y803 SFD/N0413F230 M605 HARDY/N0390F190 M605 PETAX/N0379F170 J150 VELOL |
| Aircraft | B38M/M-SDE1FGHILORVWXY/HB1 |
Departure
| Time | N/A |
|---|---|
| Airport | Manchester Airport (EGCC) |
Arrival
| Time | 2026-05-05 22:35 |
|---|---|
| Airport | Beauvais-Tillé airport (LFOB) |
| Time | Latitude | Longitude | Altitude | Speed | Heading |
|---|---|---|---|---|---|
| 2026-05-05 21:54 | 51.97155 | -1.57177 | 34160 ft | 459 kts | 148° |
| 2026-05-05 21:54 | 51.94438 | -1.54308 | 34498 ft | 459 kts | 148° |
| 2026-05-05 21:54 | 51.91762 | -1.51488 | 34826 ft | 459 kts | 148° |
| 2026-05-05 21:54 | 51.89080 | -1.48665 | 34987 ft | 460 kts | 148° |
| 2026-05-05 21:55 | 51.86401 | -1.45846 | 34989 ft | 458 kts | 148° |
| 2026-05-05 21:55 | 51.81062 | -1.40243 | 34995 ft | 457 kts | 148° |
| 2026-05-05 21:56 | 51.75704 | -1.34634 | 34999 ft | 456 kts | 148° |
| 2026-05-05 21:56 | 51.70370 | -1.29068 | 34991 ft | 455 kts | 149° |
| 2026-05-05 21:57 | 51.65045 | -1.23526 | 34992 ft | 454 kts | 149° |
| 2026-05-05 21:57 | 51.59754 | -1.18034 | 34992 ft | 452 kts | 149° |
| 2026-05-05 21:58 | 51.54397 | -1.12490 | 34995 ft | 451 kts | 149° |
| 2026-05-05 21:58 | 51.49122 | -1.07046 | 34989 ft | 449 kts | 149° |
| 2026-05-05 21:59 | 51.43867 | -1.01638 | 34984 ft | 449 kts | 149° |
| 2026-05-05 21:59 | 51.38610 | -0.96244 | 34965 ft | 448 kts | 149° |
| 2026-05-05 22:00 | 51.33366 | -0.90877 | 34974 ft | 448 kts | 149° |
| 2026-05-05 22:00 | 51.28111 | -0.85514 | 34974 ft | 448 kts | 149° |
| 2026-05-05 22:01 | 51.23751 | -0.81075 | 34960 ft | 448 kts | 149° |
| 2026-05-05 22:01 | 51.18491 | -0.75734 | 34958 ft | 448 kts | 149° |
| 2026-05-05 22:02 | 51.12342 | -0.69510 | 34972 ft | 448 kts | 149° |
| 2026-05-05 22:02 | 51.07969 | -0.65089 | 34973 ft | 448 kts | 148° |
| 2026-05-05 22:02 | 51.05526 | -0.61930 | 34952 ft | 449 kts | 133° |
| 2026-05-05 22:03 | 51.03708 | -0.57898 | 34983 ft | 451 kts | 122° |
| 2026-05-05 22:03 | 51.00903 | -0.50824 | 34989 ft | 452 kts | 123° |
| 2026-05-05 22:04 | 50.97572 | -0.42354 | 34968 ft | 451 kts | 123° |
| 2026-05-05 22:04 | 50.94286 | -0.33951 | 34967 ft | 451 kts | 123° |
| 2026-05-05 22:05 | 50.90978 | -0.25511 | 34967 ft | 450 kts | 123° |
| 2026-05-05 22:05 | 50.87674 | -0.17107 | 34968 ft | 449 kts | 123° |
| 2026-05-05 22:06 | 50.84361 | -0.08709 | 34963 ft | 449 kts | 123° |
| 2026-05-05 22:06 | 50.81029 | -0.00291 | 34958 ft | 448 kts | 123° |
| 2026-05-05 22:07 | 50.79070 | 0.04649 | 34954 ft | 448 kts | 123° |
| 2026-05-05 22:07 | 50.76278 | 0.11395 | 34945 ft | 446 kts | 131° |
| 2026-05-05 22:07 | 50.74026 | 0.14672 | 34966 ft | 443 kts | 143° |
| 2026-05-05 22:08 | 50.71609 | 0.17750 | 34695 ft | 443 kts | 141° |
| 2026-05-05 22:08 | 50.69253 | 0.20862 | 34313 ft | 441 kts | 141° |
| 2026-05-05 22:08 | 50.66906 | 0.23912 | 34014 ft | 440 kts | 141° |
| 2026-05-05 22:08 | 50.64541 | 0.26951 | 33300 ft | 438 kts | 142° |
| 2026-05-05 22:09 | 50.62171 | 0.29981 | 32435 ft | 440 kts | 142° |
| 2026-05-05 22:09 | 50.59790 | 0.33017 | 31677 ft | 440 kts | 142° |
| 2026-05-05 22:09 | 50.57416 | 0.36039 | 30866 ft | 442 kts | 141° |
| 2026-05-05 22:09 | 50.55004 | 0.39104 | 29979 ft | 445 kts | 141° |
| 2026-05-05 22:10 | 50.52598 | 0.42156 | 29228 ft | 444 kts | 141° |
| 2026-05-05 22:10 | 50.50209 | 0.45185 | 28578 ft | 439 kts | 141° |
| 2026-05-05 22:10 | 50.47829 | 0.48197 | 27905 ft | 440 kts | 141° |
| 2026-05-05 22:10 | 50.45426 | 0.51234 | 27038 ft | 444 kts | 141° |
| 2026-05-05 22:11 | 50.43044 | 0.54241 | 26495 ft | 437 kts | 141° |
| 2026-05-05 22:11 | 50.40678 | 0.57224 | 25878 ft | 437 kts | 141° |
| 2026-05-05 22:11 | 50.38306 | 0.60209 | 25234 ft | 440 kts | 141° |
| 2026-05-05 22:11 | 50.35923 | 0.63206 | 24593 ft | 439 kts | 141° |
| 2026-05-05 22:12 | 50.33533 | 0.66207 | 23825 ft | 439 kts | 141° |
| 2026-05-05 22:12 | 50.31152 | 0.69193 | 23154 ft | 436 kts | 141° |
| 2026-05-05 22:12 | 50.28802 | 0.72136 | 22489 ft | 431 kts | 141° |
| 2026-05-05 22:12 | 50.26467 | 0.75057 | 21858 ft | 426 kts | 141° |
| 2026-05-05 22:13 | 50.24165 | 0.77932 | 21238 ft | 421 kts | 141° |
| 2026-05-05 22:13 | 50.21893 | 0.80767 | 20630 ft | 417 kts | 141° |
| 2026-05-05 22:13 | 50.19635 | 0.83583 | 20014 ft | 413 kts | 140° |
| 2026-05-05 22:13 | 50.17577 | 0.86669 | 19255 ft | 411 kts | 129° |
| 2026-05-05 22:14 | 50.15744 | 0.90009 | 18698 ft | 406 kts | 130° |
| 2026-05-05 22:14 | 50.13888 | 0.93298 | 18112 ft | 402 kts | 130° |
| 2026-05-05 22:14 | 50.12049 | 0.96565 | 17450 ft | 398 kts | 130° |
| 2026-05-05 22:14 | 50.10227 | 0.99797 | 16851 ft | 394 kts | 130° |
| 2026-05-05 22:15 | 50.08438 | 1.02969 | 16270 ft | 390 kts | 129° |
| 2026-05-05 22:15 | 50.06653 | 1.06129 | 15696 ft | 386 kts | 129° |
| 2026-05-05 22:15 | 50.04895 | 1.09238 | 15342 ft | 376 kts | 129° |
| 2026-05-05 22:15 | 50.03166 | 1.12292 | 15048 ft | 366 kts | 129° |
| 2026-05-05 22:16 | 50.01512 | 1.15209 | 14832 ft | 355 kts | 129° |
| 2026-05-05 22:16 | 49.99929 | 1.17999 | 14635 ft | 344 kts | 129° |
| 2026-05-05 22:16 | 49.98367 | 1.20750 | 14440 ft | 332 kts | 129° |
| 2026-05-05 22:16 | 49.96861 | 1.23398 | 14260 ft | 322 kts | 129° |
| 2026-05-05 22:17 | 49.95400 | 1.25964 | 14073 ft | 312 kts | 129° |
| 2026-05-05 22:17 | 49.93966 | 1.28416 | 13881 ft | 304 kts | 134° |
| 2026-05-05 22:17 | 49.92210 | 1.30279 | 13504 ft | 308 kts | 148° |
| 2026-05-05 22:17 | 49.90364 | 1.31975 | 13123 ft | 308 kts | 147° |
| 2026-05-05 22:18 | 49.88534 | 1.33695 | 12782 ft | 307 kts | 147° |
| 2026-05-05 22:18 | 49.86713 | 1.35408 | 12436 ft | 305 kts | 147° |
| 2026-05-05 22:18 | 49.84901 | 1.37112 | 12106 ft | 303 kts | 147° |
| 2026-05-05 22:18 | 49.83101 | 1.38804 | 11702 ft | 304 kts | 147° |
| 2026-05-05 22:19 | 49.81261 | 1.40532 | 10988 ft | 314 kts | 147° |
| 2026-05-05 22:19 | 49.79372 | 1.42303 | 10378 ft | 320 kts | 147° |
| 2026-05-05 22:19 | 49.77477 | 1.44078 | 9780 ft | 324 kts | 147° |
| 2026-05-05 22:19 | 49.75534 | 1.45899 | 9094 ft | 329 kts | 147° |
| 2026-05-05 22:20 | 49.73593 | 1.47714 | 8888 ft | 318 kts | 147° |
| 2026-05-05 22:20 | 49.71755 | 1.49432 | 8916 ft | 300 kts | 147° |
| 2026-05-05 22:20 | 49.70000 | 1.51082 | 8592 ft | 295 kts | 147° |
| 2026-05-05 22:20 | 49.68234 | 1.52744 | 8014 ft | 300 kts | 147° |
| 2026-05-05 22:21 | 49.66448 | 1.54423 | 7575 ft | 300 kts | 147° |
| 2026-05-05 22:21 | 49.64668 | 1.56095 | 7173 ft | 298 kts | 147° |
| 2026-05-05 22:21 | 49.62937 | 1.57837 | 6796 ft | 294 kts | 137° |
| 2026-05-05 22:21 | 49.61769 | 1.60321 | 6432 ft | 285 kts | 107° |
| 2026-05-05 22:22 | 49.61445 | 1.63269 | 6148 ft | 275 kts | 91° |
| 2026-05-05 22:22 | 49.61261 | 1.66140 | 5844 ft | 270 kts | 94° |
| 2026-05-05 22:22 | 49.61055 | 1.69037 | 5542 ft | 266 kts | 94° |
| 2026-05-05 22:22 | 49.60858 | 1.71851 | 5238 ft | 262 kts | 94° |
| 2026-05-05 22:23 | 49.60664 | 1.74618 | 5007 ft | 255 kts | 94° |
| 2026-05-05 22:23 | 49.60226 | 1.77207 | 4915 ft | 253 kts | 116° |
| 2026-05-05 22:23 | 49.59253 | 1.79464 | 4828 ft | 257 kts | 120° |
| 2026-05-05 22:23 | 49.58273 | 1.81770 | 4722 ft | 256 kts | 120° |
| 2026-05-05 22:24 | 49.57285 | 1.84076 | 4604 ft | 255 kts | 121° |
| 2026-05-05 22:24 | 49.56301 | 1.86356 | 4503 ft | 251 kts | 121° |
| 2026-05-05 22:24 | 49.55363 | 1.88511 | 4503 ft | 235 kts | 121° |
| 2026-05-05 22:24 | 49.54591 | 1.90629 | 4441 ft | 220 kts | 109° |
| 2026-05-05 22:25 | 49.53991 | 1.92799 | 4360 ft | 225 kts | 110° |
| 2026-05-05 22:25 | 49.53322 | 1.95090 | 4208 ft | 242 kts | 111° |
| 2026-05-05 22:25 | 49.52598 | 1.97475 | 4203 ft | 249 kts | 112° |
| 2026-05-05 22:25 | 49.51847 | 1.99902 | 4197 ft | 252 kts | 112° |
| 2026-05-05 22:26 | 49.51086 | 2.02330 | 4200 ft | 252 kts | 113° |
| 2026-05-05 22:26 | 49.50330 | 2.04725 | 4197 ft | 252 kts | 113° |
| 2026-05-05 22:26 | 49.49558 | 2.07158 | 4202 ft | 253 kts | 113° |
| 2026-05-05 22:26 | 49.48787 | 2.09575 | 4100 ft | 250 kts | 113° |
| 2026-05-05 22:27 | 49.48028 | 2.11953 | 3867 ft | 246 kts | 113° |
| 2026-05-05 22:27 | 49.47286 | 2.14275 | 3787 ft | 236 kts | 112° |
| 2026-05-05 22:27 | 49.46575 | 2.16492 | 3694 ft | 226 kts | 112° |
| 2026-05-05 22:27 | 49.45895 | 2.18617 | 3598 ft | 217 kts | 112° |
| 2026-05-05 22:28 | 49.45260 | 2.20591 | 3605 ft | 198 kts | 112° |
| 2026-05-05 22:28 | 49.44650 | 2.22496 | 3217 ft | 201 kts | 112° |
| 2026-05-05 22:28 | 49.44024 | 2.24448 | 2791 ft | 205 kts | 111° |
| 2026-05-05 22:28 | 49.43396 | 2.26401 | 2453 ft | 203 kts | 111° |
| 2026-05-05 22:29 | 49.42770 | 2.28347 | 2092 ft | 202 kts | 111° |
| 2026-05-05 22:29 | 49.42149 | 2.30273 | 1820 ft | 197 kts | 111° |
| 2026-05-05 22:29 | 49.41542 | 2.32158 | 1800 ft | 199 kts | 111° |
| 2026-05-05 22:29 | 49.40666 | 2.33851 | 1750 ft | 211 kts | 144° |
| 2026-05-05 22:30 | 49.39227 | 2.34262 | 1748 ft | 220 kts | 189° |
| 2026-05-05 22:30 | 49.37940 | 2.33073 | 1786 ft | 219 kts | 235° |
| 2026-05-05 22:30 | 49.37519 | 2.31042 | 1765 ft | 190 kts | 282° |
| 2026-05-05 22:30 | 49.37899 | 2.29300 | 1850 ft | 164 kts | 300° |
| 2026-05-05 22:31 | 49.38414 | 2.27714 | 1865 ft | 165 kts | 304° |
| 2026-05-05 22:31 | 49.38982 | 2.26233 | 1862 ft | 152 kts | 308° |
| 2026-05-05 22:31 | 49.39529 | 2.24919 | 1843 ft | 142 kts | 311° |
| 2026-05-05 22:31 | 49.40070 | 2.23668 | 1861 ft | 141 kts | 311° |
| 2026-05-05 22:32 | 49.40611 | 2.22421 | 1700 ft | 139 kts | 311° |
| 2026-05-05 22:32 | 49.41148 | 2.21180 | 1515 ft | 139 kts | 311° |
| 2026-05-05 22:32 | 49.41680 | 2.19953 | 1338 ft | 138 kts | 310° |
| 2026-05-05 22:32 | 49.42212 | 2.18734 | 1152 ft | 139 kts | 308° |
| 2026-05-05 22:33 | 49.42747 | 2.17493 | 983 ft | 139 kts | 307° |
| 2026-05-05 22:33 | 49.43282 | 2.16264 | 798 ft | 139 kts | 307° |
| 2026-05-05 22:33 | 49.43471 | 2.15833 | 735 ft | 139 kts | 307° |
| 2026-05-05 22:34 | 49.43873 | 2.14909 | 597 ft | 137 kts | 306° |
| 2026-05-05 22:34 | 49.44392 | 2.13697 | 408 ft | 134 kts | 307° |
| 2026-05-05 22:35 | 49.44893 | 2.12534 | 321 ft | 113 kts | 307° |
| 2026-05-05 22:35 | 49.45189 | 2.11858 | 334 ft | 54 kts | 304° |
| 2026-05-05 22:35 | 49.45317 | 2.11563 | 339 ft | 14 kts | 304° |
| 2026-05-05 22:35 | 49.45369 | 2.11445 | 344 ft | 13 kts | 304° |
| 2026-05-05 22:36 | 49.45420 | 2.11332 | 346 ft | 12 kts | 313° |
| 2026-05-05 22:36 | 49.45485 | 2.11328 | 355 ft | 10 kts | 38° |
| 2026-05-05 22:36 | 49.45541 | 2.11397 | 353 ft | 10 kts | 39° |
| 2026-05-05 22:36 | 49.45587 | 2.11464 | 352 ft | 9 kts | 45° |
| 2026-05-05 22:37 | 49.45648 | 2.11548 | 362 ft | 15 kts | 41° |
| 2026-05-05 22:37 | 49.45732 | 2.11599 | 363 ft | 12 kts | 330° |
| 2026-05-05 22:37 | 49.45788 | 2.11504 | 360 ft | 2 kts | 314° |
| 2026-05-05 22:38 | 49.45790 | 2.11500 | 357 ft | 2 kts | 319° |
| 2026-05-05 22:38 | 49.45804 | 2.11489 | 362 ft | 5 kts | 341° |
| 2026-05-05 22:39 | 49.45871 | 2.11536 | 367 ft | 9 kts | 40° |
| 2026-05-05 22:39 | 49.45907 | 2.11576 | 361 ft | 4 kts | 18° |
| 2026-05-05 22:39 | 49.45918 | 2.11573 | 359 ft | 1 kts | 335° |
| 2026-05-05 22:39 | 49.45924 | 2.11563 | 363 ft | 4 kts | 311° |
| 2026-05-05 22:40 | 49.45953 | 2.11513 | 363 ft | 0 kts | 312° |